createdAt,value
2019-02-07T00:01:34.591Z,8.00
2019-02-07T00:04:06.212Z,8.10
2019-02-07T00:06:56.046Z,8.10
2019-02-07T00:09:24.078Z,8.10
2019-02-07T00:11:51.778Z,8.10
2019-02-07T00:14:19.464Z,8.10
2019-02-07T00:16:59.536Z,8.10
2019-02-07T00:19:27.148Z,8.20
2019-02-07T00:21:54.836Z,8.10
2019-02-07T00:24:24.404Z,8.20
2019-02-07T00:27:07.474Z,8.20
2019-02-07T00:29:38.919Z,8.20
2019-02-07T00:32:11.638Z,8.20
2019-02-07T00:34:40.632Z,8.20
2019-02-07T00:37:28.126Z,8.20
2019-02-07T00:39:56.083Z,8.20
2019-02-07T00:42:23.908Z,8.20
2019-02-07T00:44:54.188Z,8.20
2019-02-07T00:47:37.463Z,8.20
2019-02-07T00:50:07.049Z,8.20
2019-02-07T00:52:36.468Z,8.20
2019-02-07T00:55:05.067Z,8.20
2019-02-07T00:57:39.900Z,8.20
2019-02-07T01:00:11.985Z,8.20
2019-02-07T01:02:39.591Z,8.20
2019-02-07T01:05:08.456Z,8.20
2019-02-07T01:07:36.034Z,8.20
2019-02-07T01:10:11.948Z,8.20
2019-02-07T01:12:43.343Z,8.30
2019-02-07T01:15:17.593Z,8.20
2019-02-07T01:17:57.315Z,8.30
2019-02-07T01:20:49.485Z,8.30
2019-02-07T01:23:19.886Z,8.40
2019-02-07T01:25:54.212Z,8.30
2019-02-07T01:28:22.058Z,8.30
2019-02-07T01:30:49.929Z,8.30
2019-02-07T01:33:18.089Z,8.40
2019-02-07T01:35:49.967Z,8.30
2019-02-07T01:39:16.615Z,8.40
2019-02-07T01:41:44.395Z,8.40
2019-02-07T01:44:11.933Z,8.40
2019-02-07T01:46:55.665Z,8.30
2019-02-07T01:49:31.598Z,8.40
2019-02-07T01:52:01.689Z,8.40
2019-02-07T01:54:29.274Z,8.40
2019-02-07T01:57:05.059Z,8.40
2019-02-07T01:59:34.359Z,8.40
2019-02-07T02:02:02.577Z,8.40
2019-02-07T02:04:30.214Z,8.40
2019-02-07T02:06:57.815Z,8.40
2019-02-07T02:09:25.429Z,8.40
2019-02-07T02:11:54.941Z,8.40
2019-02-07T02:14:25.280Z,8.50
2019-02-07T02:16:59.655Z,8.50
2019-02-07T02:19:27.331Z,8.50
2019-02-07T02:21:55.074Z,8.50
2019-02-07T02:24:22.717Z,8.60
2019-02-07T02:27:02.144Z,8.60
2019-02-07T02:29:29.784Z,8.50
2019-02-07T02:31:57.435Z,8.50
2019-02-07T02:34:27.832Z,8.50
2019-02-07T02:36:55.507Z,8.50
2019-02-07T02:39:23.317Z,8.60
2019-02-07T02:41:51.067Z,8.60
2019-02-07T02:44:21.704Z,8.60
2019-02-07T02:47:13.931Z,8.60
2019-02-07T02:49:43.946Z,8.60
2019-02-07T02:52:11.550Z,8.60
2019-02-07T02:54:43.238Z,8.60
2019-02-07T02:57:35.471Z,8.60
2019-02-07T03:00:08.918Z,8.60
2019-02-07T03:02:46.988Z,8.70
2019-02-07T03:05:33.213Z,8.70
2019-02-07T03:08:47.804Z,8.70
2019-02-07T03:11:37.647Z,8.70
2019-02-07T03:14:30.995Z,8.70
2019-02-07T03:17:28.440Z,8.70
2019-02-07T03:20:26.163Z,8.80
2019-02-07T03:23:16.709Z,8.80
2019-02-07T03:26:03.841Z,8.90
2019-02-07T03:28:55.240Z,8.90
2019-02-07T03:31:54.353Z,8.90
2019-02-07T03:34:39.908Z,8.90
2019-02-07T03:37:59.436Z,8.90
2019-02-07T03:40:52.445Z,8.90
2019-02-07T03:43:40.880Z,9.00
2019-02-07T03:46:52.047Z,9.00
2019-02-07T03:49:38.077Z,9.00
2019-02-07T03:52:28.233Z,9.00
2019-02-07T03:55:38.422Z,9.00
2019-02-07T03:58:54.624Z,9.00
2019-02-07T04:01:49.489Z,9.00
2019-02-07T04:04:35.969Z,9.00
2019-02-07T04:07:23.715Z,9.10
2019-02-07T04:10:10.782Z,9.10
2019-02-07T04:12:50.202Z,9.10
2019-02-07T04:15:37.338Z,9.10
2019-02-07T04:18:29.105Z,9.10
2019-02-07T04:21:16.566Z,9.10
2019-02-07T04:24:02.338Z,9.10
2019-02-07T04:27:01.034Z,9.10
2019-02-07T04:29:37.280Z,9.10
2019-02-07T04:32:39.307Z,9.10
2019-02-07T04:35:25.057Z,9.20
2019-02-07T04:38:10.891Z,9.20
2019-02-07T04:40:56.248Z,9.20
2019-02-07T04:43:35.181Z,9.20
2019-02-07T04:46:27.391Z,9.20
2019-02-07T04:49:01.704Z,9.20
2019-02-07T04:51:48.776Z,9.30
2019-02-07T04:54:45.705Z,9.30
2019-02-07T04:57:38.720Z,9.30
2019-02-07T05:00:35.271Z,9.30
2019-02-07T05:03:22.562Z,9.30
2019-02-07T05:06:09.631Z,9.30
2019-02-07T05:08:55.390Z,9.30
2019-02-07T05:11:41.620Z,9.30
2019-02-07T05:14:43.441Z,9.30
2019-02-07T05:17:54.317Z,9.30
2019-02-07T05:20:39.715Z,9.30
2019-02-07T05:23:26.780Z,9.40
2019-02-07T05:26:12.586Z,9.40
2019-02-07T05:29:11.091Z,9.40
2019-02-07T05:31:57.064Z,9.40
2019-02-07T05:34:44.479Z,9.40
2019-02-07T05:37:55.736Z,9.40
2019-02-07T05:40:52.058Z,9.40
2019-02-07T05:43:37.836Z,9.40
2019-02-07T05:46:50.495Z,9.40
2019-02-07T05:49:27.314Z,9.40
2019-02-07T05:52:19.112Z,9.50
2019-02-07T05:55:06.239Z,9.50
2019-02-07T06:01:21.149Z,9.50
2019-02-07T06:04:03.694Z,9.50
2019-02-07T06:10:36.158Z,9.60
2019-02-07T06:13:21.938Z,9.60
2019-02-07T06:16:12.097Z,9.50
2019-02-07T06:19:06.478Z,9.50
2019-02-07T06:21:56.682Z,9.40
2019-02-07T06:25:07.440Z,9.40
2019-02-07T06:27:55.568Z,9.30
2019-02-07T06:30:35.729Z,9.20
2019-02-07T06:33:25.968Z,9.10
2019-02-07T06:36:08.287Z,9.00
2019-02-07T06:39:00.426Z,8.90
2019-02-07T06:42:06.186Z,8.80
2019-02-07T06:45:11.792Z,8.70
2019-02-07T06:48:34.955Z,8.50
2019-02-07T06:51:21.113Z,8.40
2019-02-07T06:54:14.184Z,8.40
2019-02-07T06:57:20.686Z,8.40
2019-02-07T07:00:08.789Z,8.30
2019-02-07T07:03:24.875Z,8.40
2019-02-07T07:06:23.948Z,8.30
2019-02-07T07:09:09.180Z,8.20
2019-02-07T07:11:58.159Z,8.30
2019-02-07T07:14:43.746Z,8.20
2019-02-07T07:17:39.321Z,8.10
2019-02-07T07:20:33.865Z,8.00
2019-02-07T07:23:21.006Z,8.00
2019-02-07T07:26:00.102Z,8.00
2019-02-07T07:29:08.973Z,7.90
2019-02-07T07:31:58.708Z,7.90
2019-02-07T07:34:58.195Z,7.80
2019-02-07T07:37:48.031Z,7.80
2019-02-07T07:40:37.260Z,7.80
2019-02-07T07:43:23.102Z,7.70
2019-02-07T07:46:28.081Z,7.70
2019-02-07T07:49:13.612Z,7.70
2019-02-07T07:52:00.735Z,7.80
2019-02-07T07:55:02.565Z,7.90
2019-02-07T07:57:58.675Z,7.90
2019-02-07T08:00:36.233Z,8.00
2019-02-07T08:03:16.030Z,7.90
2019-02-07T08:06:01.456Z,8.00
2019-02-07T08:09:30.774Z,8.00
2019-02-07T08:12:17.936Z,8.10
2019-02-07T08:15:20.081Z,8.10
2019-02-07T08:18:12.903Z,8.20
2019-02-07T08:20:56.384Z,8.20
2019-02-07T08:23:40.689Z,8.10
2019-02-07T08:26:21.526Z,8.10
2019-02-07T08:29:02.904Z,8.10
2019-02-07T08:31:50.502Z,8.00
2019-02-07T08:34:50.811Z,8.00
2019-02-07T08:37:52.750Z,8.00
2019-02-07T08:40:34.118Z,8.10
2019-02-07T08:43:15.042Z,8.00
2019-02-07T08:46:03.675Z,8.00
2019-02-07T08:49:06.963Z,8.00
2019-02-07T08:52:02.836Z,8.00
2019-02-07T08:54:48.807Z,8.00
2019-02-07T08:57:49.931Z,8.00
2019-02-07T09:00:44.663Z,8.00
2019-02-07T09:03:47.356Z,8.00
2019-02-07T09:06:33.134Z,8.10
2019-02-07T09:09:19.098Z,8.10
2019-02-07T09:12:04.995Z,8.20
2019-02-07T09:14:42.987Z,8.30
2019-02-07T09:17:20.081Z,8.20
2019-02-07T09:20:07.397Z,8.30
2019-02-07T09:22:59.651Z,8.30
2019-02-07T09:25:49.845Z,8.40
2019-02-07T09:29:01.360Z,8.40
2019-02-07T09:31:51.523Z,8.50
2019-02-07T09:34:37.761Z,8.50
2019-02-07T09:37:19.287Z,8.50
2019-02-07T09:40:05.061Z,8.50
2019-02-07T09:43:01.171Z,8.60
2019-02-07T09:45:58.269Z,8.60
2019-02-07T09:49:03.512Z,8.60
2019-02-07T09:52:05.573Z,8.70
2019-02-07T09:54:55.263Z,8.60
2019-02-07T09:58:10.813Z,8.70
2019-02-07T10:01:00.933Z,8.70
2019-02-07T10:03:50.994Z,8.70
2019-02-07T10:06:41.730Z,8.80
2019-02-07T10:09:27.799Z,8.90
2019-02-07T10:12:21.155Z,8.90
2019-02-07T10:15:14.468Z,8.90
2019-02-07T10:18:16.240Z,8.90
2019-02-07T10:21:21.463Z,8.90
2019-02-07T10:23:55.772Z,9.10
2019-02-07T10:26:41.847Z,9.20
2019-02-07T10:29:36.259Z,9.20
2019-02-07T10:32:26.167Z,9.30
2019-02-07T10:35:00.361Z,9.30
2019-02-07T10:37:40.222Z,9.30
2019-02-07T10:40:28.961Z,9.50
2019-02-07T10:43:14.402Z,9.50
2019-02-07T10:46:04.262Z,9.50
2019-02-07T10:48:44.743Z,9.60
2019-02-07T10:51:24.754Z,9.70
2019-02-07T10:54:10.741Z,9.70
2019-02-07T10:56:59.976Z,9.60
2019-02-07T10:59:45.948Z,9.80
2019-02-07T11:02:48.169Z,10.00
2019-02-07T11:05:38.154Z,9.90
2019-02-07T11:08:43.458Z,9.80
2019-02-07T11:11:36.732Z,9.80
2019-02-07T11:14:36.258Z,9.80
2019-02-07T11:17:15.170Z,9.70
2019-02-07T11:19:53.086Z,9.90
2019-02-07T11:22:55.235Z,10.00
2019-02-07T11:25:41.272Z,9.90
2019-02-07T11:28:33.874Z,10.10
2019-02-07T11:31:26.725Z,10.00
2019-02-07T11:34:12.360Z,10.00
2019-02-07T11:37:03.269Z,10.00
2019-02-07T11:39:50.246Z,10.10
2019-02-07T11:42:52.492Z,10.20
2019-02-07T11:45:43.954Z,10.10
2019-02-07T11:48:30.576Z,10.20
2019-02-07T11:51:08.508Z,10.30
2019-02-07T11:54:00.516Z,10.60
2019-02-07T11:56:50.797Z,10.50
2019-02-07T11:59:41.223Z,10.40
2019-02-07T12:02:20.131Z,10.50
2019-02-07T12:05:07.273Z,10.50
2019-02-07T12:08:12.977Z,10.50
2019-02-07T12:11:00.030Z,10.50
2019-02-07T12:13:52.287Z,10.40
2019-02-07T12:16:46.787Z,10.40
2019-02-07T12:19:30.704Z,10.30
2019-02-07T12:22:10.315Z,10.30
2019-02-07T12:25:09.696Z,10.40
2019-02-07T12:27:56.861Z,10.40
2019-02-07T12:30:42.795Z,10.30
2019-02-07T12:33:18.388Z,10.30
2019-02-07T12:36:23.567Z,10.50
2019-02-07T12:39:16.244Z,10.70
2019-02-07T12:42:01.879Z,10.80
2019-02-07T12:44:46.303Z,10.90
2019-02-07T12:48:02.961Z,11.00
2019-02-07T12:50:48.665Z,10.80
2019-02-07T12:53:37.414Z,10.90
2019-02-07T12:56:25.180Z,10.90
2019-02-07T12:59:24.456Z,10.70
2019-02-07T13:02:17.621Z,10.70
2019-02-07T13:05:08.085Z,10.60
2019-02-07T13:08:12.165Z,10.50
2019-02-07T13:11:03.310Z,10.30
2019-02-07T13:13:48.094Z,10.40
2019-02-07T13:16:34.195Z,10.30
2019-02-07T13:19:16.599Z,10.20
2019-02-07T13:22:18.508Z,10.30
2019-02-07T13:25:08.320Z,10.50
2019-02-07T13:28:05.493Z,10.60
2019-02-07T13:31:22.582Z,10.60
2019-02-07T13:34:11.649Z,10.80
2019-02-07T13:37:27.229Z,10.90
2019-02-07T13:40:16.393Z,10.70
2019-02-07T13:43:08.465Z,10.60
2019-02-07T13:46:00.968Z,10.50
2019-02-07T13:48:48.256Z,10.50
2019-02-07T13:51:41.850Z,10.40
2019-02-07T13:54:33.145Z,10.30
2019-02-07T13:57:26.989Z,10.30
2019-02-07T14:00:29.084Z,10.30
2019-02-07T14:03:48.746Z,10.40
2019-02-07T14:14:16.102Z,10.80
2019-02-07T14:17:33.344Z,10.80
2019-02-07T14:20:51.752Z,10.70
2019-02-07T14:23:56.074Z,10.90
2019-02-07T14:30:33.531Z,11.00
2019-02-07T14:33:30.139Z,11.10
2019-02-07T14:36:30.800Z,11.10
2019-02-07T14:39:44.635Z,10.90
2019-02-07T14:42:55.346Z,10.60
2019-02-07T14:45:49.782Z,10.50
2019-02-07T14:48:34.531Z,10.40
2019-02-07T14:51:18.004Z,10.30
2019-02-07T14:57:23.438Z,10.20
2019-02-07T15:00:20.563Z,10.20
2019-02-07T15:03:34.327Z,10.20
2019-02-07T15:06:30.269Z,10.20
2019-02-07T15:09:24.022Z,9.90
2019-02-07T15:12:14.760Z,9.80
2019-02-07T15:15:32.304Z,9.70
2019-02-07T15:21:50.383Z,9.60
2019-02-07T15:25:18.824Z,9.70
2019-02-07T15:32:12.616Z,9.80
2019-02-07T15:34:53.828Z,9.80
2019-02-07T15:38:04.277Z,9.80
2019-02-07T15:41:17.012Z,9.70
2019-02-07T15:47:40.282Z,9.70
2019-02-07T15:50:49.811Z,9.80
2019-02-07T15:53:29.541Z,9.70
2019-02-07T15:56:23.699Z,9.60
2019-02-07T15:59:25.605Z,9.60
2019-02-07T16:02:38.962Z,9.60
2019-02-07T16:05:48.938Z,9.50
2019-02-07T16:08:54.035Z,9.40
2019-02-07T16:11:57.597Z,9.20
2019-02-07T16:15:16.909Z,9.20
2019-02-07T16:53:47.827Z,9.00
2019-02-07T17:18:45.443Z,8.60
2019-02-07T17:25:39.187Z,8.60
2019-02-07T17:31:56.116Z,8.80
2019-02-07T17:35:03.964Z,8.80
2019-02-07T17:37:14.666Z,8.80
2019-02-07T17:40:05.644Z,8.80
2019-02-07T17:45:42.501Z,8.90
2019-02-07T17:48:46.758Z,8.80
2019-02-07T17:51:37.758Z,8.80
2019-02-07T17:54:29.699Z,8.70
2019-02-07T17:57:19.060Z,8.70
2019-02-07T18:00:13.775Z,8.70
2019-02-07T18:03:15.642Z,8.70
2019-02-07T18:05:43.983Z,8.70
2019-02-07T18:08:19.832Z,8.50
2019-02-07T18:10:54.539Z,8.50
2019-02-07T18:14:15.140Z,8.40
2019-02-07T18:17:01.936Z,8.40
2019-02-07T18:19:36.943Z,8.40
2019-02-07T18:22:08.484Z,8.40
2019-02-07T18:24:36.674Z,8.40
2019-02-07T18:27:04.425Z,8.40
2019-02-07T18:29:32.219Z,8.30
2019-02-07T18:32:00.026Z,8.20
2019-02-07T18:34:34.489Z,8.30
2019-02-07T18:37:04.610Z,8.30
2019-02-07T18:39:32.737Z,8.30
2019-02-07T18:42:17.028Z,8.30
2019-02-07T18:44:44.684Z,8.30
2019-02-07T18:47:16.512Z,8.30
2019-02-07T18:49:46.226Z,8.30
2019-02-07T18:52:38.951Z,8.20
2019-02-07T18:55:09.492Z,8.20
2019-02-07T18:58:14.668Z,8.20
2019-02-07T19:00:44.960Z,8.10
2019-02-07T19:03:51.660Z,8.10
2019-02-07T19:06:40.813Z,8.00
2019-02-07T19:09:20.016Z,8.00
2019-02-07T19:11:59.772Z,8.10
2019-02-07T19:15:29.148Z,8.00
2019-02-07T19:18:31.788Z,8.00
2019-02-07T19:21:06.216Z,8.00
2019-02-07T19:23:35.338Z,7.90
2019-02-07T19:26:16.728Z,7.80
2019-02-07T19:28:50.292Z,7.70
2019-02-07T19:31:18.148Z,7.70
2019-02-07T19:33:46.059Z,7.60
2019-02-07T19:36:23.049Z,7.60
2019-02-07T19:38:50.793Z,7.60
2019-02-07T19:41:18.608Z,7.60
2019-02-07T19:43:48.730Z,7.70
2019-02-07T19:46:16.373Z,7.70
2019-02-07T19:48:48.194Z,7.60
2019-02-07T19:51:15.953Z,7.50
2019-02-07T19:54:50.015Z,7.50
2019-02-07T19:57:27.113Z,7.50
2019-02-07T20:00:05.680Z,7.40
2019-02-07T20:02:34.154Z,7.40
2019-02-07T20:05:01.923Z,7.40
2019-02-07T20:07:52.527Z,7.40
2019-02-07T20:10:21.750Z,7.40
2019-02-07T20:12:50.168Z,7.40
2019-02-07T20:15:24.281Z,7.50
2019-02-07T20:18:04.849Z,7.50
2019-02-07T20:20:41.725Z,7.50
2019-02-07T20:23:08.189Z,7.40
2019-02-07T20:25:44.359Z,7.20
2019-02-07T20:28:14.202Z,7.40
2019-02-07T20:30:43.271Z,7.30
2019-02-07T20:33:11.877Z,7.30
2019-02-07T20:35:45.914Z,7.20
2019-02-07T20:38:21.580Z,7.20
2019-02-07T20:40:49.333Z,7.10
2019-02-07T20:43:17.139Z,7.10
2019-02-07T20:45:44.918Z,7.20
2019-02-07T20:48:42.234Z,7.10
2019-02-07T20:51:13.681Z,7.00
2019-02-07T20:53:51.562Z,7.00
2019-02-07T20:56:26.467Z,7.00
2019-02-07T20:58:57.005Z,7.10
2019-02-07T21:01:25.189Z,6.90
2019-02-07T21:03:53.322Z,6.80
2019-02-07T21:06:24.056Z,6.80
2019-02-07T21:08:56.019Z,6.80
2019-02-07T21:11:26.293Z,6.80
2019-02-07T21:13:55.414Z,6.80
2019-02-07T21:16:23.069Z,6.80
2019-02-07T21:18:50.976Z,6.80
2019-02-07T21:21:24.177Z,6.80
2019-02-07T21:24:01.059Z,6.80
2019-02-07T21:26:54.096Z,6.80
2019-02-07T21:29:21.860Z,6.80
2019-02-07T21:35:42.304Z,6.80
2019-02-07T21:38:21.919Z,6.70
2019-02-07T21:40:50.007Z,6.70
2019-02-07T21:43:19.890Z,6.70
2019-02-07T21:45:47.520Z,6.60
2019-02-07T21:48:18.556Z,6.60
2019-02-07T21:50:46.592Z,6.60
2019-02-07T21:53:14.547Z,6.70
2019-02-07T21:55:43.756Z,6.60
2019-02-07T21:58:26.952Z,6.70
2019-02-07T22:00:54.666Z,6.70
2019-02-07T22:03:22.343Z,6.70
2019-02-07T22:05:50.000Z,6.70
2019-02-07T22:08:39.019Z,6.60
2019-02-07T22:11:09.556Z,6.60
2019-02-07T22:13:37.120Z,6.60
2019-02-07T22:16:04.870Z,6.60
2019-02-07T22:18:42.150Z,6.60
2019-02-07T22:21:09.836Z,6.60
2019-02-07T22:23:37.563Z,6.60
2019-02-07T22:26:05.543Z,6.60
2019-02-07T22:28:33.414Z,6.50
2019-02-07T22:31:01.068Z,6.60
2019-02-07T22:33:28.697Z,6.60
2019-02-07T22:35:56.361Z,6.60
2019-02-07T22:38:28.391Z,6.60
2019-02-07T22:40:55.926Z,6.50
2019-02-07T22:43:23.547Z,6.50
2019-02-07T22:45:51.186Z,6.50
2019-02-07T22:48:18.837Z,6.50
2019-02-07T22:50:46.493Z,6.50
2019-02-07T22:53:14.083Z,6.50
2019-02-07T22:55:41.707Z,6.60
2019-02-07T22:58:27.712Z,6.50
2019-02-07T23:01:27.541Z,6.50
2019-02-07T23:03:59.957Z,6.40
2019-02-07T23:06:30.542Z,6.50
2019-02-07T23:09:00.190Z,6.50
2019-02-07T23:11:27.858Z,6.40
2019-02-07T23:13:55.503Z,6.30
2019-02-07T23:16:23.435Z,6.40
2019-02-07T23:18:51.236Z,6.30
2019-02-07T23:21:18.990Z,6.30
2019-02-07T23:23:46.583Z,6.30
2019-02-07T23:26:14.359Z,6.30
2019-02-07T23:28:42.032Z,6.30
2019-02-07T23:31:10.385Z,6.40
2019-02-07T23:33:38.072Z,6.30
2019-02-07T23:36:07.542Z,6.30
2019-02-07T23:38:58.633Z,6.30
2019-02-07T23:41:26.205Z,6.30
2019-02-07T23:43:53.775Z,6.40
2019-02-07T23:46:21.802Z,6.40
2019-02-07T23:48:49.364Z,6.40
2019-02-07T23:51:17.046Z,6.40
2019-02-07T23:53:44.723Z,6.40
2019-02-07T23:56:12.317Z,6.40
2019-02-07T23:58:49.330Z,6.30
